Time;durP1;ratioP1;P1;durP2;ratioP2;P2;SDS_P1;SDS_P2;PMS_P1;PMS_P2;Temp;Humidity;BMP_temperature;BMP_pressure;BME280_temperature;BME280_humidity;BME280_pressure;Samples;Min_cycle;Max_cycle;Signal;HPM_P1;HPM_P2
2021/04/12 00:02:22;;;;;;;10.43;2.75;;;2.00;95.20;;;;;;4967941;28;20485;-77
2021/04/12 00:04:50;;;;;;;3.70;1.85;;;1.90;95.20;;;;;;4996372;28;20443;-80
2021/04/12 00:07:26;;;;;;;2.65;2.35;;;1.80;95.40;;;;;;4986882;28;20086;-80
2021/04/12 00:10:06;;;;;;;5.25;2.78;;;1.70;95.40;;;;;;5000398;28;20048;-78
2021/04/12 00:12:41;;;;;;;6.07;2.92;;;1.60;95.60;;;;;;4991716;28;20556;-78
2021/04/12 00:15:28;;;;;;;6.75;2.60;;;1.50;95.70;;;;;;4981247;28;20040;-78
2021/04/12 00:17:56;;;;;;;5.95;2.47;;;1.50;95.70;;;;;;4963654;28;20037;-78
2021/04/12 00:20:29;;;;;;;3.13;2.13;;;1.50;95.70;;;;;;4997956;28;20966;-77
2021/04/12 00:22:58;;;;;;;4.38;2.28;;;1.50;95.70;;;;;;4996990;28;20034;-77
2021/04/12 00:25:39;;;;;;;4.88;2.67;;;1.40;95.60;;;;;;4982108;28;20034;-78
2021/04/12 00:28:30;;;;;;;2.10;1.80;;;1.30;95.70;;;;;;4981037;28;20401;-78
2021/04/12 00:30:58;;;;;;;5.57;3.05;;;1.30;95.90;;;;;;4989639;28;20589;-78
2021/04/12 00:33:28;;;;;;;4.20;2.30;;;1.40;95.80;;;;;;5014192;28;20037;-78
2021/04/12 00:36:00;;;;;;;6.78;2.00;;;1.40;95.80;;;;;;4976753;28;20129;-78
2021/04/12 00:38:43;;;;;;;5.13;1.98;;;1.40;95.70;;;;;;4991472;28;20132;-77
2021/04/12 00:41:50;;;;;;;3.78;2.25;;;1.40;95.90;;;;;;4968745;28;20103;-77
2021/04/12 00:44:35;;;;;;;3.30;1.90;;;1.30;95.70;;;;;;5002310;28;20030;-78
2021/04/12 00:47:17;;;;;;;3.17;1.83;;;1.30;95.80;;;;;;4976642;28;20060;-78
2021/04/12 00:49:51;;;;;;;4.05;2.17;;;1.40;95.70;;;;;;5003047;28;20039;-77
2021/04/12 00:52:35;;;;;;;6.90;2.75;;;1.40;95.70;;;;;;5003508;28;20079;-78
2021/04/12 00:55:07;;;;;;;6.15;2.33;;;1.30;95.50;;;;;;5010576;28;20048;-78
2021/04/12 00:58:06;;;;;;;3.95;2.20;;;1.30;95.70;;;;;;5007224;28;20029;-78
2021/04/12 01:00:55;;;;;;;6.95;2.38;;;1.40;95.70;;;;;;4993734;28;20030;-78
2021/04/12 01:03:41;;;;;;;5.45;2.63;;;1.40;95.40;;;;;;4994654;28;20034;-77
2021/04/12 01:06:12;;;;;;;4.75;2.70;;;1.30;95.70;;;;;;4996105;28;20485;-77
2021/04/12 01:09:15;;;;;;;5.95;3.08;;;1.10;95.70;;;;;;5011504;28;20758;-77
2021/04/12 01:12:01;;;;;;;5.28;2.28;;;1.10;95.80;;;;;;5007251;28;20026;-77
2021/04/12 01:14:45;;;;;;;5.63;2.55;;;1.10;96.00;;;;;;4997674;28;20422;-77
2021/04/12 01:17:11;;;;;;;5.82;3.17;;;1.30;95.90;;;;;;4992732;28;20034;-77
2021/04/12 01:19:54;;;;;;;3.42;1.92;;;1.30;95.60;;;;;;4992330;28;20036;-77
2021/04/12 01:22:56;;;;;;;3.15;2.30;;;1.30;95.70;;;;;;5004696;28;20031;-77
2021/04/12 01:25:40;;;;;;;6.80;3.53;;;1.40;95.60;;;;;;4980737;28;20057;-77
2021/04/12 01:28:32;;;;;;;5.93;2.80;;;1.30;95.50;;;;;;4996375;28;20160;-77
2021/04/12 01:31:19;;;;;;;5.55;3.15;;;1.20;95.60;;;;;;4993554;28;20132;-77
2021/04/12 01:33:47;;;;;;;;;;;1.10;95.60;;;;;;5000480;28;20045;-77
2021/04/12 01:36:36;;;;;;;10.15;4.03;;;1.00;95.80;;;;;;4996362;28;19964;-77
2021/04/12 01:39:07;;;;;;;5.10;3.00;;;0.90;96.00;;;;;;4974055;28;20038;-77
2021/04/12 01:42:14;;;;;;;6.43;3.95;;;0.90;96.00;;;;;;4995794;28;20030;-77
2021/04/12 01:44:48;;;;;;;3.28;2.40;;;1.00;95.90;;;;;;4976124;28;20033;-77
2021/04/12 01:47:37;;;;;;;7.45;3.00;;;1.10;95.80;;;;;;4999453;28;20041;-77
2021/04/12 01:50:18;;;;;;;12.00;3.42;;;1.30;95.50;;;;;;4989318;28;20393;-77
2021/04/12 01:53:13;;;;;;;4.05;3.13;;;1.10;95.40;;;;;;4995694;28;20051;-77
2021/04/12 01:55:47;;;;;;;6.72;3.03;;;1.00;96.00;;;;;;4997401;28;20109;-77
2021/04/12 01:58:40;;;;;;;9.93;3.50;;;0.90;95.80;;;;;;5001958;28;20149;-77
2021/04/12 02:01:09;;;;;;;6.80;3.90;;;0.90;95.80;;;;;;4998702;28;20042;-77
2021/04/12 02:03:48;;;;;;;7.88;3.08;;;0.80;95.90;;;;;;4993579;28;20122;-77
2021/04/12 02:06:27;;;;;;;8.90;3.42;;;0.90;96.20;;;;;;4973676;28;20713;-77
2021/04/12 02:09:11;;;;;;;8.38;3.50;;;1.00;95.80;;;;;;4978242;28;20455;-77
2021/04/12 02:11:59;;;;;;;6.63;3.83;;;0.90;95.80;;;;;;5002161;28;20038;-77
2021/04/12 02:14:36;;;;;;;4.80;3.10;;;0.80;95.90;;;;;;4988547;28;20042;-77
2021/04/12 02:17:05;;;;;;;9.48;4.07;;;0.80;96.10;;;;;;4991575;28;20516;-77
2021/04/12 02:19:55;;;;;;;10.02;4.78;;;0.80;96.00;;;;;;4986107;28;20225;-77
2021/04/12 02:22:55;;;;;;;8.75;4.85;;;0.70;95.90;;;;;;5001080;28;20033;-77
2021/04/12 02:25:29;;;;;;;8.63;4.65;;;0.60;96.00;;;;;;4976981;28;20030;-78
2021/04/12 02:28:21;;;;;;;7.88;4.43;;;0.60;96.00;;;;;;4981794;28;20038;-77
2021/04/12 02:31:21;;;;;;;6.72;4.03;;;0.80;96.10;;;;;;5004334;28;20037;-77
2021/04/12 02:33:52;;;;;;;9.52;4.53;;;0.70;96.10;;;;;;4993411;28;20049;-77
2021/04/12 02:37:01;;;;;;;7.35;4.40;;;0.60;96.00;;;;;;4997681;28;20508;-77
2021/04/12 02:39:49;;;;;;;7.60;4.70;;;0.60;96.20;;;;;;4977182;28;20030;-78
2021/04/12 02:42:32;;;;;;;6.80;3.75;;;0.60;96.20;;;;;;4997556;28;20034;-78
2021/04/12 02:45:30;;;;;;;7.32;4.43;;;0.50;96.20;;;;;;5002451;28;20037;-78
2021/04/12 02:48:37;;;;;;;8.75;4.57;;;0.50;96.00;;;;;;5000920;28;20026;-77
2021/04/12 02:51:22;;;;;;;6.05;3.92;;;0.50;96.10;;;;;;4950146;28;20035;-76
2021/04/12 02:54:00;;;;;;;6.03;4.40;;;0.50;96.10;;;;;;4957461;28;20031;-76
2021/04/12 02:56:54;;;;;;;9.55;4.40;;;0.60;96.00;;;;;;4996772;28;20033;-76
2021/04/12 02:59:54;;;;;;;10.52;4.60;;;0.60;95.90;;;;;;4997285;28;20666;-76
2021/04/12 03:02:49;;;;;;;11.77;5.38;;;0.50;96.00;;;;;;4954546;28;20091;-75
2021/04/12 03:05:36;;;;;;;11.02;5.47;;;0.40;95.90;;;;;;4995375;28;20030;-76
2021/04/12 03:08:37;;;;;;;6.30;3.72;;;0.40;96.10;;;;;;5004420;28;20428;-75
2021/04/12 03:11:24;;;;;;;12.55;3.70;;;0.40;96.20;;;;;;4994330;28;20031;-76
2021/04/12 03:14:17;;;;;;;6.93;4.10;;;0.40;96.20;;;;;;4993239;28;20526;-76
2021/04/12 03:17:08;;;;;;;9.75;5.38;;;0.50;96.40;;;;;;4993334;28;20034;-76
2021/04/12 03:19:59;;;;;;;10.23;4.97;;;0.50;96.10;;;;;;4998968;28;20442;-76
2021/04/12 03:23:02;;;;;;;9.00;4.47;;;0.40;96.00;;;;;;5002515;28;20033;-76
2021/04/12 03:26:09;;;;;;;8.00;4.40;;;0.40;96.20;;;;;;5003461;28;20034;-76
2021/04/12 03:29:04;;;;;;;8.00;4.73;;;0.40;96.20;;;;;;4992880;28;20040;-76
2021/04/12 03:31:43;;;;;;;5.85;3.95;;;0.30;96.10;;;;;;4974455;28;20038;-76
2021/04/12 03:34:19;;;;;;;7.63;4.55;;;0.40;96.20;;;;;;4988412;28;20041;-76
2021/04/12 03:37:20;;;;;;;8.60;5.43;;;0.30;96.00;;;;;;4974626;28;20030;-76
2021/04/12 03:39:52;;;;;;;9.63;4.30;;;0.30;96.00;;;;;;4994600;28;20509;-76
2021/04/12 03:42:44;;;;;;;8.15;4.53;;;0.30;96.10;;;;;;4982011;28;20046;-76
2021/04/12 03:45:12;;;;;;;8.25;3.83;;;0.50;95.90;;;;;;4990674;28;20050;-76
2021/04/12 03:47:46;;;;;;;11.93;5.97;;;0.60;95.70;;;;;;4976222;28;20023;-76
2021/04/12 03:50:40;;;;;;;10.75;3.92;;;0.70;95.60;;;;;;4965915;28;20037;-76
2021/04/12 03:53:17;;;;;;;10.27;4.60;;;0.70;95.60;;;;;;4994384;28;20042;-76
2021/04/12 03:56:08;;;;;;;9.23;5.15;;;0.60;95.70;;;;;;4993279;28;20031;-76
2021/04/12 03:59:01;;;;;;;7.13;4.80;;;0.70;95.50;;;;;;4991780;28;20058;-76
2021/04/12 04:01:45;;;;;;;8.00;4.75;;;0.50;95.70;;;;;;4999817;28;20025;-76
2021/04/12 04:04:45;;;;;;;9.05;6.47;;;0.50;95.70;;;;;;4994843;28;20030;-76
2021/04/12 04:07:28;;;;;;;10.23;6.18;;;0.40;95.90;;;;;;5001791;28;20483;-76
2021/04/12 04:10:09;;;;;;;10.80;6.00;;;0.30;96.00;;;;;;4963786;28;20081;-76
2021/04/12 04:13:05;;;;;;;5.95;4.60;;;0.20;96.10;;;;;;4993890;28;20038;-76
2021/04/12 04:15:57;;;;;;;8.65;5.45;;;0.30;96.10;;;;;;4992963;28;20121;-76
2021/04/12 04:18:31;;;;;;;8.10;5.22;;;0.30;96.00;;;;;;4984426;28;22967;-76
2021/04/12 04:21:23;;;;;;;10.90;6.63;;;0.50;95.80;;;;;;5002813;28;20544;-76
2021/04/12 04:24:10;;;;;;;6.40;4.40;;;0.50;95.50;;;;;;4986484;28;20033;-76
2021/04/12 04:27:06;;;;;;;10.15;5.07;;;0.50;95.80;;;;;;5003006;28;20366;-76
2021/04/12 04:29:44;;;;;;;11.10;6.78;;;0.40;95.60;;;;;;5000343;28;20040;-76
2021/04/12 04:32:39;;;;;;;8.95;4.93;;;0.30;95.60;;;;;;5003605;28;20611;-76
2021/04/12 04:35:10;;;;;;;12.20;6.93;;;0.30;95.70;;;;;;4998507;28;20116;-76
2021/04/12 04:38:03;;;;;;;9.15;6.18;;;0.30;95.50;;;;;;4978077;28;20023;-76
2021/04/12 04:41:01;;;;;;;13.73;8.02;;;0.20;95.90;;;;;;5005045;28;20565;-76
2021/04/12 04:43:57;;;;;;;8.80;6.38;;;0.00;95.80;;;;;;4976752;28;20026;-76
2021/04/12 04:46:40;;;;;;;11.88;6.68;;;0.10;96.00;;;;;;4987673;28;20377;-76
2021/04/12 04:49:31;;;;;;;12.98;7.15;;;0.10;95.80;;;;;;4998308;28;20030;-76
2021/04/12 04:52:05;;;;;;;14.05;6.35;;;0.00;95.60;;;;;;5021095;28;20030;-76
2021/04/12 04:54:55;;;;;;;12.93;5.15;;;0.10;95.80;;;;;;4998647;28;20335;-76
2021/04/12 04:57:44;;;;;;;8.15;5.32;;;0.10;95.70;;;;;;4991546;28;20629;-76
2021/04/12 05:00:13;;;;;;;10.52;6.38;;;0.10;95.50;;;;;;5006039;28;20113;-76
2021/04/12 05:03:09;;;;;;;9.48;6.53;;;0.20;95.40;;;;;;4990001;28;20057;-76
2021/04/12 05:05:47;;;;;;;9.60;5.80;;;0.20;95.40;;;;;;4960023;28;20105;-76
2021/04/12 05:08:33;;;;;;;13.18;7.10;;;0.10;95.80;;;;;;4975203;28;20058;-76
2021/04/12 05:11:23;;;;;;;7.65;5.60;;;0.20;95.60;;;;;;4986906;28;20026;-75
2021/04/12 05:14:30;;;;;;;14.15;8.15;;;0.30;95.60;;;;;;4996246;28;20514;-76
2021/04/12 05:17:20;;;;;;;9.48;6.82;;;0.20;95.50;;;;;;4971468;28;20045;-75
2021/04/12 05:20:10;;;;;;;17.20;8.25;;;0.30;95.40;;;;;;4982036;28;20517;-75
2021/04/12 05:22:56;;;;;;;9.95;4.68;;;0.20;95.50;;;;;;4997317;28;20481;-76
2021/04/12 05:25:28;;;;;;;13.40;7.78;;;0.40;95.70;;;;;;4993230;28;20034;-76
2021/04/12 05:28:30;;;;;;;13.32;8.38;;;0.30;95.60;;;;;;4994153;28;20537;-75
2021/04/12 05:31:00;;;;;;;11.05;6.38;;;0.10;96.00;;;;;;5010807;28;20037;-76
2021/04/12 05:34:03;;;;;;;11.95;7.50;;;0.20;96.20;;;;;;4998558;28;20033;-76
2021/04/12 05:36:44;;;;;;;15.15;8.23;;;0.30;95.80;;;;;;5008037;28;20136;-75
2021/04/12 05:39:27;;;;;;;21.55;8.45;;;0.30;95.90;;;;;;5002751;28;20048;-75
2021/04/12 05:42:05;;;;;;;19.58;9.57;;;0.20;96.10;;;;;;5003609;28;20038;-75
2021/04/12 05:44:36;;;;;;;13.55;9.25;;;0.20;96.10;;;;;;4992475;28;20037;-75
2021/04/12 05:47:04;;;;;;;13.82;8.88;;;0.20;96.00;;;;;;5008414;28;20108;-75
2021/04/12 05:49:48;;;;;;;23.00;10.88;;;0.20;96.30;;;;;;4976824;28;20037;-75
2021/04/12 05:52:35;;;;;;;16.88;9.90;;;0.30;96.30;;;;;;4999929;28;20117;-75
2021/04/12 05:55:12;;;;;;;12.63;6.93;;;0.40;96.40;;;;;;5010760;28;20030;-75
2021/04/12 05:57:46;;;;;;;13.95;8.27;;;0.50;96.20;;;;;;5002176;28;20497;-75
2021/04/12 06:00:24;;;;;;;16.25;9.48;;;0.50;96.50;;;;;;5006409;28;20327;-75
2021/04/12 06:03:07;;;;;;;10.32;7.70;;;0.60;96.20;;;;;;4995839;28;20073;-75
2021/04/12 06:05:37;;;;;;;19.08;10.80;;;0.80;96.00;;;;;;5009062;28;20371;-75
2021/04/12 06:08:23;;;;;;;17.92;9.27;;;0.80;96.00;;;;;;5010005;28;20414;-75
2021/04/12 06:11:26;;;;;;;15.98;10.90;;;0.80;96.40;;;;;;4995150;28;20063;-76
2021/04/12 06:14:29;;;;;;;9.55;7.53;;;0.90;96.20;;;;;;5003252;28;21649;-74
2021/04/12 06:17:12;;;;;;;12.32;7.50;;;1.00;95.80;;;;;;4970939;28;20169;-75
2021/04/12 06:20:10;;;;;;;12.38;6.40;;;1.10;95.80;;;;;;5002407;28;20041;-75
2021/04/12 06:22:50;;;;;;;13.68;9.68;;;1.20;96.00;;;;;;4995227;28;20053;-75
2021/04/12 06:25:32;;;;;;;13.88;7.80;;;1.30;96.20;;;;;;4997435;28;20033;-75
2021/04/12 06:28:25;;;;;;;15.63;9.50;;;1.30;95.90;;;;;;4994889;28;20132;-75
2021/04/12 06:31:22;;;;;;;16.52;8.93;;;1.40;96.10;;;;;;5004861;28;20045;-74
2021/04/12 06:33:53;;;;;;;12.52;8.20;;;1.50;95.90;;;;;;5007667;28;20441;-74
2021/04/12 06:36:35;;;;;;;16.52;10.48;;;1.50;96.10;;;;;;4992022;28;20038;-75
2021/04/12 06:39:07;;;;;;;15.15;7.72;;;1.60;95.90;;;;;;4975216;28;20038;-75
2021/04/12 06:41:51;;;;;;;18.17;11.23;;;1.70;95.70;;;;;;5006907;28;20107;-75
2021/04/12 06:44:29;;;;;;;19.40;9.20;;;1.80;96.20;;;;;;5004268;28;20497;-74
2021/04/12 06:47:07;;;;;;;15.93;6.63;;;1.80;96.00;;;;;;4995597;28;20022;-75
2021/04/12 06:49:44;;;;;;;21.08;9.10;;;1.90;96.20;;;;;;4989544;28;20162;-75
2021/04/12 06:52:37;;;;;;;15.98;8.70;;;2.00;96.20;;;;;;4997966;28;20030;-75
2021/04/12 06:55:21;;;;;;;17.58;9.32;;;2.10;95.90;;;;;;5002158;28;20041;-76
2021/04/12 06:58:05;;;;;;;12.38;6.38;;;2.20;97.00;;;;;;5000827;28;20022;-74
2021/04/12 07:00:55;;;;;;;16.50;7.88;;;2.30;96.50;;;;;;4997193;28;20030;-76
2021/04/12 07:03:51;;;;;;;16.23;9.50;;;2.40;96.20;;;;;;5004372;28;20054;-75
2021/04/12 07:06:54;;;;;;;9.30;5.90;;;2.50;96.10;;;;;;5022219;28;20373;-75
2021/04/12 07:09:31;;;;;;;16.40;9.55;;;2.60;95.70;;;;;;4989926;28;20497;-75
2021/04/12 07:12:01;;;;;;;12.45;6.80;;;2.70;95.80;;;;;;4970136;28;20034;-75
2021/04/12 07:14:55;;;;;;;13.13;7.43;;;2.80;95.90;;;;;;4983308;28;20474;-74
2021/04/12 07:17:43;;;;;;;17.42;6.95;;;2.90;96.80;;;;;;5003603;28;20026;-74
2021/04/12 07:20:30;;;;;;;9.95;5.80;;;3.00;96.00;;;;;;5003818;28;20398;-74
2021/04/12 07:23:26;;;;;;;15.23;9.63;;;3.10;95.80;;;;;;4992817;28;20400;-74
2021/04/12 07:26:04;;;;;;;13.32;8.35;;;3.20;97.40;;;;;;4993667;28;20582;-74
2021/04/12 07:28:58;;;;;;;17.70;9.15;;;3.30;96.90;;;;;;4994150;28;20041;-74
2021/04/12 07:31:54;;;;;;;15.35;9.95;;;3.40;96.80;;;;;;5006686;28;20068;-75
2021/04/12 07:34:51;;;;;;;9.07;6.40;;;3.50;95.80;;;;;;4989748;28;20042;-74
2021/04/12 07:37:29;;;;;;;11.43;7.93;;;3.60;96.60;;;;;;5001976;28;20113;-74
2021/04/12 07:40:20;;;;;;;15.95;6.72;;;3.70;96.30;;;;;;4991332;28;20425;-73
2021/04/12 07:43:13;;;;;;;15.02;6.45;;;3.90;95.40;;;;;;5000555;28;20045;-75
2021/04/12 07:46:36;;;;;;;4.75;2.78;;;3.90;95.40;;;;;;5000307;28;20509;-74
2021/04/12 07:49:26;;;;;;;15.77;7.03;;;4.10;95.10;;;;;;4889054;29;20588;-74
2021/04/12 07:52:31;;;;;;;8.50;6.57;;;4.20;95.70;;;;;;4901589;29;20040;-74
2021/04/12 07:55:24;;;;;;;12.20;6.75;;;4.30;95.50;;;;;;4988402;28;20037;-74
2021/04/12 07:57:49;;;;;;;7.78;4.32;;;4.70;97.00;;;;;;4988059;28;20050;-74
2021/04/12 08:00:52;;;;;;;10.85;6.70;;;4.80;95.30;;;;;;4993674;28;20116;-74
2021/04/12 08:03:53;;;;;;;12.98;6.53;;;5.10;97.80;;;;;;4978791;28;20045;-74
2021/04/12 08:06:43;;;;;;;16.85;8.48;;;5.10;95.60;;;;;;4977370;28;20061;-74
2021/04/12 08:09:39;;;;;;;10.85;6.97;;;5.30;95.40;;;;;;5004730;28;20033;-75
2021/04/12 08:12:32;;;;;;;11.50;7.30;;;5.40;95.60;;;;;;4999502;28;20125;-75
2021/04/12 08:15:06;;;;;;;14.07;7.90;;;5.50;94.60;;;;;;5005596;28;20034;-75
2021/04/12 08:17:53;;;;;;;13.98;8.50;;;5.90;95.90;;;;;;5016637;28;20073;-74
2021/04/12 08:20:46;;;;;;;7.75;6.13;;;6.30;99.20;;;;;;4999180;28;20042;-75
2021/04/12 08:23:42;;;;;;;15.38;9.55;;;6.50;95.60;;;;;;4995276;28;20037;-74
2021/04/12 08:26:45;;;;;;;13.30;10.10;;;6.30;96.60;;;;;;4980342;28;20030;-74
2021/04/12 08:29:25;;;;;;;5.82;3.67;;;7.10;97.20;;;;;;5008445;28;20121;-74
2021/04/12 08:32:41;;;;;;;7.35;5.13;;;6.90;94.30;;;;;;5000561;28;20038;-73
2021/04/12 08:35:45;;;;;;;15.43;9.32;;;7.20;97.40;;;;;;5001179;28;20073;-74
2021/04/12 08:38:29;;;;;;;10.48;6.72;;;8.00;99.60;;;;;;4976894;28;20044;-74
2021/04/12 08:41:32;;;;;;;8.85;4.40;;;7.60;96.30;;;;;;4998056;28;20049;-74
2021/04/12 08:44:10;;;;;;;12.35;7.18;;;7.60;95.80;;;;;;5001737;28;20045;-74
2021/04/12 08:47:18;;;;;;;12.82;7.50;;;8.00;98.50;;;;;;5004859;28;20057;-74
2021/04/12 08:50:26;;;;;;;10.85;6.55;;;8.00;98.80;;;;;;4909388;29;20146;-74
2021/04/12 08:52:54;;;;;;;9.60;6.82;;;7.90;93.70;;;;;;4891623;29;20571;-74
2021/04/12 08:55:28;;;;;;;14.63;7.18;;;8.10;94.70;;;;;;4980701;28;20022;-75
2021/04/12 08:58:20;;;;;;;19.27;8.50;;;8.50;98.40;;;;;;4995080;28;20034;-74
2021/04/12 09:01:08;;;;;;;10.23;6.40;;;8.80;99.20;;;;;;4971954;28;20042;-75
2021/04/12 09:03:58;;;;;;;10.90;6.57;;;8.60;95.50;;;;;;4996172;28;20026;-75
2021/04/12 09:06:43;;;;;;;14.90;7.45;;;8.60;97.20;;;;;;4992210;28;20045;-75
2021/04/12 09:09:30;;;;;;;12.90;7.18;;;9.40;99.70;;;;;;4991786;28;20026;-74
2021/04/12 09:12:16;;;;;;;14.63;7.95;;;8.90;93.30;;;;;;4999550;28;20030;-75
2021/04/12 09:15:06;;;;;;;;;;;8.50;92.10;;;;;;4996732;28;20041;-75
2021/04/12 09:17:56;;;;;;;11.73;6.38;;;8.50;91.40;;;;;;4994053;28;19910;-75
2021/04/12 09:20:45;;;;;;;10.05;6.60;;;8.90;94.90;;;;;;4997940;28;20512;-75
2021/04/12 09:23:48;;;;;;;8.88;5.57;;;9.30;98.00;;;;;;5017438;28;20035;-75
2021/04/12 09:26:52;;;;;;;6.55;4.05;;;10.30;98.30;;;;;;4996843;28;20038;-76
2021/04/12 09:29:17;;;;;;;9.65;6.93;;;9.80;93.70;;;;;;5000455;28;20045;-75
2021/04/12 09:31:58;;;;;;;7.93;5.75;;;10.70;98.30;;;;;;4998767;28;20028;-76
2021/04/12 09:34:45;;;;;;;11.10;6.65;;;11.00;98.80;;;;;;4989369;28;20057;-75
2021/04/12 09:37:29;;;;;;;12.35;7.68;;;10.90;97.60;;;;;;4991302;28;20398;-75
2021/04/12 09:40:19;;;;;;;11.18;9.32;;;10.60;97.10;;;;;;4991606;28;20026;-76
2021/04/12 09:43:07;;;;;;;10.60;6.47;;;11.00;98.10;;;;;;5002648;28;20037;-75
2021/04/12 09:45:56;;;;;;;6.30;5.70;;;11.30;98.00;;;;;;4981959;28;20038;-75
2021/04/12 09:48:53;;;;;;;6.28;4.10;;;11.60;98.00;;;;;;4991671;28;20023;-76
2021/04/12 09:51:33;;;;;;;5.93;4.43;;;11.80;97.20;;;;;;4988950;28;20038;-75
2021/04/12 09:54:35;;;;;;;8.55;5.13;;;11.80;97.10;;;;;;4992129;28;20053;-76
2021/04/12 09:57:21;;;;;;;7.03;4.78;;;11.70;96.80;;;;;;5000093;28;20073;-76
2021/04/12 10:00:11;;;;;;;8.98;5.47;;;11.60;96.50;;;;;;4990341;28;20035;-75
2021/04/12 10:02:57;;;;;;;7.95;5.45;;;11.40;95.60;;;;;;5002288;28;20038;-75
2021/04/12 10:05:56;;;;;;;7.00;4.43;;;11.30;96.10;;;;;;4987729;28;20088;-76
2021/04/12 10:08:44;;;;;;;6.40;4.75;;;11.40;95.80;;;;;;4998616;28;20030;-76
2021/04/12 10:11:15;;;;;;;2.25;1.52;;;11.40;96.40;;;;;;4978136;28;20046;-75
2021/04/12 10:13:53;;;;;;;2.45;0.95;;;11.10;95.20;;;;;;4975866;28;20151;-75
2021/04/12 10:16:22;;;;;;;2.92;1.42;;;10.90;94.10;;;;;;4980283;28;20033;-76
2021/04/12 10:19:17;;;;;;;2.88;1.25;;;10.60;94.70;;;;;;4975762;28;20100;-76
2021/04/12 10:22:01;;;;;;;2.05;1.38;;;10.40;94.30;;;;;;4996452;28;20037;-76
2021/04/12 10:24:58;;;;;;;2.58;2.30;;;10.20;94.00;;;;;;4991189;28;20057;-76
2021/04/12 10:27:32;;;;;;;3.40;2.65;;;10.00;94.30;;;;;;4984077;28;20045;-76
2021/04/12 10:30:10;;;;;;;6.05;3.20;;;9.80;94.50;;;;;;4979420;28;20037;-76
2021/04/12 10:32:47;;;;;;;3.63;3.33;;;9.60;94.20;;;;;;4990667;28;20030;-77
2021/04/12 10:35:22;;;;;;;6.70;4.10;;;9.50;94.20;;;;;;4973600;28;20034;-77
2021/04/12 10:37:52;;;;;;;9.13;4.85;;;9.60;94.60;;;;;;4991313;28;20490;-76
2021/04/12 10:40:21;;;;;;;8.07;4.72;;;9.70;94.60;;;;;;4987581;28;20456;-76
2021/04/12 10:43:21;;;;;;;6.53;5.07;;;9.80;94.40;;;;;;4982524;28;20483;-76
2021/04/12 10:46:07;;;;;;;7.38;4.57;;;9.90;94.10;;;;;;4975195;28;20540;-76
2021/04/12 10:48:54;;;;;;;5.70;4.70;;;10.00;93.40;;;;;;4994098;28;20564;-77
2021/04/12 10:51:39;;;;;;;8.15;3.72;;;10.30;94.40;;;;;;4996071;28;20255;-76
2021/04/12 10:54:07;;;;;;;7.13;3.67;;;10.80;95.50;;;;;;4995203;28;20454;-77
2021/04/12 10:56:37;;;;;;;5.43;3.95;;;11.10;95.90;;;;;;4997040;28;20034;-76
2021/04/12 10:59:39;;;;;;;7.05;3.60;;;11.40;95.60;;;;;;5003858;28;20037;-77
2021/04/12 11:02:16;;;;;;;4.40;4.00;;;11.80;94.20;;;;;;4993166;28;20027;-77
2021/04/12 11:04:59;;;;;;;5.13;2.50;;;12.00;93.90;;;;;;4982911;28;20037;-77
2021/04/12 11:08:18;;;;;;;7.00;1.85;;;12.40;92.30;;;;;;4988309;28;20046;-77
2021/04/12 11:11:15;;;;;;;2.22;1.15;;;12.80;93.70;;;;;;4914776;29;20040;-77
2021/04/12 11:13:48;;;;;;;2.28;1.17;;;12.70;91.90;;;;;;5011859;28;20038;-77
2021/04/12 11:16:21;;;;;;;3.22;1.90;;;12.50;87.90;;;;;;5003507;28;20109;-77
2021/04/12 11:19:10;;;;;;;2.78;1.83;;;12.60;89.70;;;;;;4993757;28;20062;-76
2021/04/12 11:21:54;;;;;;;6.40;1.48;;;12.50;90.50;;;;;;5001536;28;20044;-77
2021/04/12 11:24:33;;;;;;;1.88;1.70;;;12.40;90.30;;;;;;5005206;28;20427;-77
2021/04/12 11:27:31;;;;;;;1.98;1.73;;;12.30;88.00;;;;;;4999021;28;20439;-77
2021/04/12 11:30:05;;;;;;;2.78;1.55;;;12.30;90.10;;;;;;5004840;28;20037;-77
2021/04/12 11:32:56;;;;;;;2.67;1.90;;;12.20;87.60;;;;;;4997251;28;20045;-77
2021/04/12 11:35:34;;;;;;;2.28;1.08;;;12.10;87.50;;;;;;4980221;28;20145;-77
2021/04/12 11:38:13;;;;;;;0.85;0.85;;;12.10;90.00;;;;;;4981979;28;20445;-77
2021/04/12 11:40:51;;;;;;;3.63;1.42;;;11.90;90.60;;;;;;4972704;28;20023;-77
2021/04/12 11:43:20;;;;;;;2.30;1.40;;;11.50;91.20;;;;;;4993604;28;20057;-77
2021/04/12 11:46:12;;;;;;;5.28;1.27;;;11.00;90.20;;;;;;4976190;28;20030;-77
2021/04/12 11:48:51;;;;;;;1.40;1.20;;;10.80;90.60;;;;;;5000605;28;20387;-76
2021/04/12 11:51:40;;;;;;;1.85;1.60;;;10.40;89.50;;;;;;4977138;28;20041;-77
2021/04/12 11:54:06;;;;;;;1.60;1.50;;;10.10;91.80;;;;;;4985948;28;20042;-76
2021/04/12 11:57:12;;;;;;;1.35;0.80;;;9.80;91.70;;;;;;4977663;28;20034;-76
2021/04/12 11:59:50;;;;;;;1.63;1.40;;;9.50;91.90;;;;;;5002582;28;20498;-76
2021/04/12 12:02:19;;;;;;;2.08;1.30;;;9.30;91.80;;;;;;5001141;28;20041;-76
2021/04/12 12:04:46;;;;;;;2.35;1.35;;;9.20;91.00;;;;;;4995452;28;20033;-77
2021/04/12 12:07:35;;;;;;;3.13;1.55;;;9.00;91.30;;;;;;4991311;28;20117;-76
2021/04/12 12:10:10;;;;;;;1.63;1.35;;;8.90;91.50;;;;;;4991286;28;20039;-77
2021/04/12 12:12:59;;;;;;;1.10;1.00;;;8.80;92.70;;;;;;4992259;28;20030;-76
2021/04/12 12:15:49;;;;;;;1.77;1.40;;;8.90;93.20;;;;;;4978446;28;20041;-77
2021/04/12 12:18:22;;;;;;;1.92;1.23;;;9.30;92.80;;;;;;4992837;28;20421;-77
2021/04/12 12:21:05;;;;;;;3.22;1.40;;;9.50;92.30;;;;;;4992073;28;20461;-76
2021/04/12 12:23:53;;;;;;;2.20;1.52;;;9.50;92.00;;;;;;4986978;28;20030;-78
2021/04/12 12:26:29;;;;;;;1.10;0.95;;;9.50;92.10;;;;;;4975575;28;20027;-77
2021/04/12 12:29:15;;;;;;;;;;;9.70;91.90;;;;;;4994837;28;20063;-77
2021/04/12 12:32:07;;;;;;;1.98;0.80;;;9.50;93.10;;;;;;5015145;28;19925;-77
2021/04/12 12:34:35;;;;;;;2.30;1.25;;;9.80;92.60;;;;;;4992860;28;20065;-77
2021/04/12 12:37:03;;;;;;;2.42;1.25;;;9.80;92.80;;;;;;4993215;28;20038;-77
2021/04/12 12:39:39;;;;;;;2.42;1.30;;;10.10;93.00;;;;;;4992401;28;20038;-77
2021/04/12 12:42:11;;;;;;;3.38;1.38;;;10.10;91.90;;;;;;4979245;28;20030;-77
2021/04/12 12:44:36;;;;;;;1.65;1.05;;;10.20;92.40;;;;;;4993284;28;20030;-77
2021/04/12 12:47:07;;;;;;;3.10;1.92;;;10.20;92.90;;;;;;5002458;28;20045;-77
2021/04/12 12:49:33;;;;;;;2.35;1.60;;;10.70;92.10;;;;;;4983068;28;20106;-77
2021/04/12 12:52:08;;;;;;;3.75;1.90;;;10.90;92.00;;;;;;4995041;28;20026;-77
2021/04/12 12:54:43;;;;;;;5.05;1.63;;;10.90;92.40;;;;;;4983416;28;20318;-77
2021/04/12 12:57:11;;;;;;;2.47;2.13;;;10.50;92.70;;;;;;5004076;28;20029;-77
2021/04/12 12:59:38;;;;;;;9.02;2.72;;;10.30;93.00;;;;;;4959010;28;20065;-77
2021/04/12 13:02:26;;;;;;;5.07;1.85;;;11.20;92.70;;;;;;4982765;28;20037;-77
2021/04/12 13:05:18;;;;;;;3.47;1.75;;;12.00;91.20;;;;;;4979497;28;20037;-76
2021/04/12 13:07:43;;;;;;;2.75;2.38;;;12.20;90.00;;;;;;5002304;28;20110;-77
2021/04/12 13:10:25;;;;;;;5.72;3.35;;;11.30;91.90;;;;;;4975936;28;21882;-76
2021/04/12 13:12:52;;;;;;;3.67;1.58;;;11.10;92.40;;;;;;4992419;28;20038;-77
2021/04/12 13:15:36;;;;;;;6.05;4.20;;;11.30;91.90;;;;;;4992393;28;20031;-76
2021/04/12 13:18:12;;;;;;;2.78;1.92;;;11.60;91.80;;;;;;4989913;28;20038;-77
2021/04/12 13:20:50;;;;;;;3.40;1.98;;;11.50;91.30;;;;;;4991648;28;20495;-76
2021/04/12 13:23:19;;;;;;;5.05;2.97;;;12.00;87.90;;;;;;5002956;28;20026;-77
2021/04/12 13:25:51;;;;;;;7.38;2.88;;;12.00;88.20;;;;;;4997070;28;20105;-76
2021/04/12 13:28:35;;;;;;;4.78;2.45;;;11.60;89.70;;;;;;4965853;28;20081;-76
2021/04/12 13:31:15;;;;;;;3.67;2.85;;;11.60;87.90;;;;;;4971990;28;20097;-77
2021/04/12 13:33:41;;;;;;;3.47;2.50;;;11.30;89.80;;;;;;4998913;28;20651;-77
2021/04/12 13:36:15;;;;;;;3.65;1.67;;;11.50;88.10;;;;;;5002713;28;20070;-76
2021/04/12 13:38:40;;;;;;;3.20;2.03;;;11.50;86.30;;;;;;4991943;28;20045;-77
2021/04/12 13:41:12;;;;;;;3.03;1.95;;;11.30;86.30;;;;;;4989734;28;20046;-77
2021/04/12 13:43:41;;;;;;;1.95;1.50;;;11.60;83.40;;;;;;4975049;28;20058;-76
2021/04/12 13:46:11;;;;;;;3.83;1.70;;;11.20;78.80;;;;;;4966390;28;20165;-76
2021/04/12 13:48:37;;;;;;;1.58;1.23;;;11.10;81.10;;;;;;4991373;28;20045;-76
2021/04/12 13:51:08;;;;;;;2.50;1.65;;;10.60;79.30;;;;;;4996954;28;20034;-76
2021/04/12 13:53:37;;;;;;;2.17;1.83;;;10.40;80.70;;;;;;4987820;28;20128;-77
2021/04/12 13:56:06;;;;;;;2.13;1.77;;;10.30;81.00;;;;;;5008333;28;20026;-77
2021/04/12 13:58:40;;;;;;;2.70;2.20;;;10.30;80.90;;;;;;4991864;28;20469;-76
2021/04/12 14:01:20;;;;;;;4.35;3.05;;;9.90;82.60;;;;;;4965325;28;20069;-77
2021/04/12 14:04:11;;;;;;;3.75;3.40;;;9.90;84.10;;;;;;4978654;28;20032;-77
2021/04/12 14:06:44;;;;;;;3.22;2.92;;;9.90;84.80;;;;;;5000240;28;20041;-77
2021/04/12 14:09:14;;;;;;;4.65;3.92;;;10.00;84.50;;;;;;4976127;28;20033;-77
2021/04/12 14:11:39;;;;;;;4.78;3.50;;;10.10;88.00;;;;;;4974659;28;20033;-77
2021/04/12 14:14:15;;;;;;;3.38;3.08;;;10.10;87.70;;;;;;4996687;28;20038;-77
2021/04/12 14:16:40;;;;;;;3.38;2.97;;;10.10;89.10;;;;;;4999996;28;20030;-77
2021/04/12 14:19:29;;;;;;;3.15;2.78;;;10.10;89.50;;;;;;5006331;28;20048;-77